To NAV CANADA Home Page Login to a new session Search on AWWS site Feedback and Comments Disclaimer Vers la page française équivalente Tips FAQ What's new on the site To the Forecasts and Observations / NOTAM section To "File a Flight Plan" website Publications and other links Update of the User's profile FIC Telephone Numbers My Weather Data Folder Route Weather Data Regional Weather Data Local Weather Data To the Forecasts and Observations / NOTAM section
Request Generated 03/23/2017 at 00:19:05 UTC . Weather information available at that time is displayed.

METAR/TAF

If you find any discrepancies between the coded METAR/TAF and the plain language METAR/TAF please use the coded METAR/TAF. LWIS bulletins are not decoded in plain language.

TORONTO/LESTER B. PEARSON INTL/ON    

METAR CYYZ 230000Z 01008KT 15SM SKC M04/M15 A3050 RMK SLP342=
METAR
LOCATION
CYYZ - TORONTO/LESTER B. PEARSON INTL/ON
DATE - TIME
23 MARCH 2017 - 0000 UTC
WIND
10 TRUE @ 8  KNOTS
VISIBILITY
15 STAT.  MILES
RUNWAY VISUAL RANGE
WEATHER
CLOUDINESS
CLEAR SKY
TEMP / DEWPOINT
-4 C / -15 C
ALTIMETER
30.50 IN HG
RECENT WEATHER
WIND SHEAR

METAR CYYZ 222300Z 34009G17KT 15SM SKC M03/M15 A3049 RMK SLP338=
METAR
LOCATION
CYYZ - TORONTO/LESTER B. PEARSON INTL/ON
DATE - TIME
22 MARCH 2017 - 2300 UTC
WIND
340 TRUE @ 9  KNOTS
GUSTS
17 KNOTS
VISIBILITY
15 STAT.  MILES
RUNWAY VISUAL RANGE
WEATHER
CLOUDINESS
CLEAR SKY
TEMP / DEWPOINT
-3 C / -15 C
ALTIMETER
30.49 IN HG
RECENT WEATHER
WIND SHEAR

METAR CYYZ 222200Z 31011KT 15SM SKC M02/M17 A3050 RMK SLP339=
METAR
LOCATION
CYYZ - TORONTO/LESTER B. PEARSON INTL/ON
DATE - TIME
22 MARCH 2017 - 2200 UTC
WIND
310 TRUE @ 11  KNOTS
VISIBILITY
15 STAT.  MILES
RUNWAY VISUAL RANGE
WEATHER
CLOUDINESS
CLEAR SKY
TEMP / DEWPOINT
-2 C / -17 C
ALTIMETER
30.50 IN HG
RECENT WEATHER
WIND SHEAR

TAF CYYZ 222338Z 2300/2406 34010KT P6SM SKC BECMG 2310/2311 24005KT FM231700 19010KT P6SM FEW140 SCT200 FM232100 16012KT P6SM OVC140 FM240100 09008KT P6SM OVC080 RMK NXT FCST BY 230300Z=
TAF
LOCATION

CYYZ - TORONTO/LESTER B. PEARSON INTL/ON
VALIDITY [UTC]
22 MAR - 2338 to
24 MAR - 0600
 
TIMES
[UTC]
WIND
[DEGREES TRUE]
VISIBILITY
[STAT. MILES]
WEATHER
CLOUDINESS
[FEET AGL]
 
23 MAR - 0000 to
23 MAR - 1700
340 @ 10 KNOTS
6+
NIL
CLEAR SKY
BECOMING
23 MAR - 1000 to
23 MAR - 1100
240 @ 5 KNOTS
 
 
 
 
23 MAR - 1700 to
23 MAR - 2100
190 @ 10 KNOTS
6+
NIL
14000 FEW
20000 SCATTERED
 
23 MAR - 2100 to
24 MAR - 0100
160 @ 12 KNOTS
6+
NIL
14000 OVERCAST
 
24 MAR - 0100 to
24 MAR - 0600
90 @ 8 KNOTS
6+
NIL
8000 OVERCAST
REMARKS
THE NEXT FORECAST WILL BE ISSUED BY 0300 UTC ON DAY 23


Your time UTC time
Weather data provided by Environment Canada and NAV CANADA